Tiempo atmosférico en la estación meteorológica de Ledesma, Salamanca (790 m.)



Fecha
DESCASC
Temp. máxima en grados centígrados (hora)
DESCASC
Temp. mínima en grados centígrados (hora)
DESCASC
Temp. media en grados centígrados
DESCASC
Racha de viento máxima en m/sg (hora)
DESCASC
Velocidad máxima media en intervalos de 10 minutos(hora)
DESCASC
Precipitaciones diarias en mm
DESCASC
Precipitaciones de 00:00 a 06:00 en mm
DESCASC
Precipitaciones de 06:00 a 12:00 en mm
DESCASC
Precipitaciones de 12:00 a 18:00 en mm
DESCASC
Precipitaciones de 18:00 a 24:00 en mm
DESCASC
16-01-2020 10.9 (15:30) 6.3 (23:59) 8.6 15 (13:10) 8.89 (13:50) 2.2 0 0 0 2.2
15-01-2020 11.8 (16:10) 5.8 (10:40) 8.8 14.44 (03:30) 9.44 (03:30) 8 0 8 0 0
14-01-2020 8.1 (15:50) 3.2 (08:20) 5.7 11.11 (16:40) 6.39 (17:20) 0.4 0 0 0 0.4
13-01-2020 9.2 (15:20) -6.6 (05:00) 1.3 8.06 (15:50) 5 (14:10) 0 0 0 0 0
12-01-2020 7.4 (15:40) -5.5 (07:50) 1 5.83 (17:30) 4.17 (17:30) 0.2 0 0.2 0 0
11-01-2020 8.4 (16:30) -3.8 (-00:0) 2.3 4.72 (07:00) 3.61 (09:20) 0 0 0 0 0
10-01-2020 7.6 (15:30) -2.5 (-00:0) 2.5 8.33 (13:40) 5.56 (13:40) 0 0 0 0 0
09-01-2020 10.9 (16:50) -1.3 (-00:0) 4.8 10 (17:40) 5.28 (17:50) 0 0 0 0 0
08-01-2020 9 (16:10) -4.4 (-00:0) 2.3 3.33 (14:10) 2.22 (12:00) 0.2 0 0.2 0 0
07-01-2020 5 (15:10) -3.3 (-00:0) 0.9 6.39 (02:20) 4.72 (02:30) 0 0 0 0 0
06-01-2020 4.8 (17:00) -3 (-00:0) 0.9 4.72 (21:10) 3.33 (21:10) 0.2 0 0.2 0 0
05-01-2020 3.1 (15:40) 0.4 (00:00) 1.7 6.67 (01:10) 4.72 (01:00) 0 0 0 0 0
04-01-2020 5.9 (16:00) 1.5 (00:00) 3.7 8.06 (17:50) 5.56 (22:40) 0 0 0 0 0
03-01-2020 9.5 (14:30) 2.8 (00:00) 6.1 5.56 (22:10) 4.17 (22:20) 0 0 0 0 0
02-01-2020 11.9 (15:00) -4 (-00:0) 3.9 4.44 (15:20) 2.78 (15:30) 0 0 0 0 0
01-01-2020 12.4 (14:40) -4.2 (-00:0) 4.1 2.78 (16:00) 2.22 (15:50) 0.2 0 0.2 0 0
31-12-2019 13.8 (15:50) -3.4 (-00:0) 5.2 2.5 (17:30) 1.67 (17:30) 0.2 0 0.2 0 0
30-12-2019 -- (--) -- (--) -- -- (--) -- (--) -- 0 0.2 0 --
29-12-2019 12.9 (15:10) -2 (-00:0) 5.4 3.61 (16:10) 3.06 (16:20) 0 0 0 0 0
28-12-2019 9.7 (16:50) -2.2 (-00:0) 3.7 6.11 (16:50) 3.89 (15:50) 0 0 0 0 0
27-12-2019 5.7 (15:30) -0.5 (-00:0) 2.6 6.94 (06:10) 5 (00:30) 0 0 0 0 0
26-12-2019 9.9 (02:40) 2.6 (00:00) 6.2 8.61 (22:00) 5.83 (22:20) 0 0 0 0 0
25-12-2019 13.4 (15:20) 2.7 (00:00) 8 6.11 (00:10) 4.17 (00:10) 0.2 0 0.2 0 0
24-12-2019 14.2 (15:00) 3.2 (06:10) 8.7 6.39 (23:59) 4.72 (23:59) 0 0 0 0 0
23-12-2019 12.4 (15:10) 2.1 (00:00) 7.2 6.67 (14:10) 3.89 (12:20) 0 0 0 0 0
22-12-2019 13.6 (14:10) 5.3 (23:59) 9.5 18.89 (15:00) 10.83 (14:00) 0 0 0 0 0
21-12-2019 14 (11:10) 8.4 (21:20) 11.2 23.89 (16:10) 13.61 (15:50) 14.2 0.8 5.4 6.6 1.4
20-12-2019 13 (19:50) 6.6 (00:00) 9.8 25.28 (00:20) 13.06 (00:50) 17.4 6.2 0.8 6.8 3.6

Gráficas

Temp. máximas Temp. mínimas Temp. medias Precipitaciones Rachas de viento máximas Velocidades máximas media en intervalos de 10 minutos

Datos horarios

Fecha y hora oficial Temperatura (ºC) Velocidad del viento (km/h) Dirección del viento Racha (km/h) Dirección de racha Precipitación (mm) Presión (hPa) Tendencia (hPa) Humedad (%)
2020-01-18 23:00:00 5.4 10 Oeste 21 Oeste 0 -- -- 91
2020-01-18 22:00:00 5 9 Noroeste 24 Oeste 0 -- -- 92
2020-01-18 21:00:00 5.6 12 Oeste 24 Oeste 0 -- -- 92
2020-01-18 20:00:00 6.6 11 Noroeste 48 Noroeste 0.4 -- -- 93
2020-01-18 19:00:00 8.9 20 Oeste 56 Oeste 0 -- -- 73
2020-01-18 18:00:00 10 33 Oeste 62 Sudoeste 0 -- -- 75
2020-01-18 17:00:00 11.1 32 Oeste 57 Sudoeste 0 -- -- 84
2020-01-18 16:00:00 11.3 26 Oeste 49 Sudoeste 0.2 -- -- 88
2020-01-18 15:00:00 10.4 23 Sudoeste 43 Oeste 0 -- -- 92
2020-01-18 14:00:00 10.6 20 Sudoeste 36 Sudoeste 0 -- -- 87
2020-01-18 13:00:00 9.7 22 Sudoeste 45 Sudoeste 0 -- -- 93
2020-01-18 12:00:00 8.5 14 Sudoeste 27 Sudoeste 0.2 -- -- 100
2020-01-18 11:00:00 7 5 Oeste 8 Sur 0 -- -- 100
2020-01-18 10:00:00 6.2 3 Sur 9 Sudeste 0.2 -- -- 100
2020-01-18 09:00:00 5.9 5 Sudeste 10 Sudeste 0 -- -- 99
2020-01-18 08:00:00 5.8 4 Sudeste 9 Sudeste 0 -- -- 99
2020-01-18 07:00:00 5.5 4 Sudeste 13 Sur 0.6 -- -- 98
2020-01-18 06:00:00 5.2 6 Sur 11 Sur 0.2 -- -- 98
2020-01-18 05:00:00 5 7 Sur 11 Sur 1.4 -- -- 96
2020-01-18 04:00:00 5 2 Sur 5 Sudeste 0 -- -- 92
2020-01-18 03:00:00 4.8 0 Calma 3 Sudeste 0 -- -- 92
2020-01-18 02:00:00 4.5 2 Sudeste 7 Sudeste 0 -- -- 92
2020-01-18 01:00:00 4.5 3 Sur 5 Sur 0 -- -- 92
2020-01-18 00:00:00 4.6 3 Sudeste 9 Este 0 -- -- 91
2020-01-17 23:00:00 4.9 3 Sur 5 Este 0 -- -- 92
2020-01-17 22:00:00 5.1 0 Calma 5 Nordeste 0 -- -- 92
2020-01-17 21:00:00 5.3 0 Calma 5 Nordeste 0 -- -- 92
2020-01-17 20:00:00 6 0 Calma 4 Nordeste 0 -- -- 89
2020-01-17 19:00:00 6.8 2 Nordeste 5 Oeste 0 -- -- 85
2020-01-17 18:00:00 7.7 0 Calma 12 Oeste 0 -- -- 78
2020-01-17 17:00:00 8.6 7 Oeste 21 Oeste 0 -- -- 68
2020-01-17 16:00:00 9.6 13 Oeste 24 Oeste 0 -- -- 72
2020-01-17 15:00:00 9.4 12 Oeste 26 Noroeste 0 -- -- 71
2020-01-17 14:00:00 8.8 12 Oeste 27 Oeste 0 -- -- 76
2020-01-17 13:00:00 8.1 19 Oeste 33 Oeste 0 -- -- 74
2020-01-17 12:00:00 6.9 10 Oeste 22 Sudoeste 0 -- -- 86
2020-01-17 11:00:00 6.9 14 Oeste 23 Oeste 0 -- -- 93
2020-01-17 10:00:00 5.9 8 Oeste 26 Oeste 0 -- -- 97
2020-01-17 09:00:00 5.8 11 Oeste 26 Oeste 0 -- -- 99
2020-01-17 08:00:00 6.2 9 Oeste 20 Oeste 0 -- -- 100
2020-01-17 07:00:00 6.3 8 Oeste 23 Oeste 2.4 -- -- 100
2020-01-17 06:00:00 6.3 16 Sudoeste 28 Oeste 0.2 -- -- 99
2020-01-17 05:00:00 6 15 Sudoeste 28 Sudoeste 0.4 -- -- 98
2020-01-17 04:00:00 6.1 8 Sudoeste 17 Sudoeste 0.4 -- -- 97
2020-01-17 03:00:00 6.1 13 Sudoeste 22 Sudoeste 0 -- -- 97
2020-01-17 02:00:00 5.7 13 Sudoeste 24 Sudoeste 0 -- -- 98
2020-01-17 01:00:00 6.3 13 Sudoeste 24 Sudoeste 0 -- -- 97
2020-01-17 00:00:00 6.3 14 Sudoeste 27 Sudoeste 0 -- -- 97
2020-01-16 23:00:00 6.9 13 Sudoeste 37 Oeste 0 -- -- 96
2020-01-16 22:00:00 7.7 20 Oeste 36 Sudoeste 1 -- -- 96
2020-01-16 21:00:00 8 22 Sudoeste 33 Sudoeste 0 -- -- 92
2020-01-16 20:00:00 7.9 21 Sudoeste 53 Sudoeste 1.2 -- -- 90
2020-01-16 19:00:00 8.9 26 Sudoeste 46 Sudoeste 0 -- -- 76
2020-01-16 18:00:00 9.4 27 Sudoeste 46 Sudoeste 0 -- -- 70
2020-01-16 17:00:00 9.8 27 Sudoeste 51 Sudoeste 0 -- -- 73
2020-01-16 16:00:00 10.2 23 Sudoeste 46 Sudoeste 0 -- -- 73
2020-01-16 15:00:00 10.1 27 Sudoeste 45 Sudoeste 0 -- -- 73
2020-01-16 14:00:00 10 30 Sudoeste 54 Sudoeste 0 -- -- 73
2020-01-16 13:00:00 10.4 30 Sudoeste 49 Sudoeste 0 -- -- 70
2020-01-16 12:00:00 10 28 Sudoeste 49 Sudoeste 0 -- -- 76
2020-01-16 11:00:00 9.4 22 Sudoeste 41 Sudoeste 0 -- -- 83
2020-01-16 10:00:00 8.8 21 Sudoeste 35 Sudoeste 0 -- -- 92
2020-01-16 09:00:00 6.7 5 Sur 13 Sur 0 -- -- 98
2020-01-16 08:00:00 6.9 6 Sur 15 Sudoeste 0 -- -- 97
2020-01-16 07:00:00 7.2 6 Sur 14 Sur 0 -- -- 97
2020-01-16 06:00:00 6.4 3 Sur 9 Sur 0 -- -- 96
2020-01-16 05:00:00 6.9 2 Este 11 Sudeste 0 -- -- 94
2020-01-16 04:00:00 7.9 6 Sur 15 Sur 0 -- -- 93
2020-01-16 03:00:00 8.5 9 Sur 19 Sur 0 -- -- 91
2020-01-16 02:00:00 8.4 4 Sudoeste 20 Sur 0 -- -- 92
2020-01-16 01:00:00 8.8 14 Sudoeste 23 Sudoeste 0 -- -- 93
2020-01-16 00:00:00 7.8 7 Sur 15 Sur 0 -- -- 97
2020-01-15 23:00:00 7.8 4 Sur 10 Sur 0 -- -- 96
2020-01-15 22:00:00 8.3 5 Sur 11 Sur 0 -- -- 95
2020-01-15 21:00:00 9 8 Sur 22 Sudoeste 0 -- -- 92
2020-01-15 20:00:00 9.2 10 Sudoeste 20 Sudoeste 0 -- -- 92
2020-01-15 19:00:00 9.4 6 Sudoeste 28 Oeste 0 -- -- 90
2020-01-15 18:00:00 10.2 13 Sudoeste 27 Sudoeste 0 -- -- 88
2020-01-15 17:00:00 10.7 18 Sudoeste 29 Sudoeste 0 -- -- 86
2020-01-15 16:00:00 11.5 17 Sudoeste 34 Oeste 0 -- -- 83
2020-01-15 15:00:00 10.6 19 Sudoeste 34 Sudoeste 0 -- -- 88
2020-01-15 14:00:00 9.6 15 Sudoeste 25 Sudoeste 0 -- -- 93
2020-01-15 13:00:00 8.6 14 Sudoeste 24 Sudoeste 0 -- -- 96
2020-01-15 12:00:00 6.4 6 Sudeste 13 Sudeste 1 -- -- 98
2020-01-15 11:00:00 5.9 2 Oeste 34 Oeste 4.6 -- -- 96
2020-01-15 10:00:00 7 18 Oeste 39 Noroeste 2.4 -- -- 91
2020-01-15 09:00:00 7.4 17 Sudoeste 34 Sudoeste 0 -- -- 89
2020-01-15 08:00:00 7.6 19 Sudoeste 41 Sudoeste 0 -- -- 88
2020-01-15 07:00:00 7.6 22 Sudoeste 37 Sudoeste 0 -- -- 88
2020-01-15 06:00:00 7.4 26 Sudoeste 44 Sudoeste 0 -- -- 90
2020-01-15 05:00:00 7.4 24 Sudoeste 46 Sudoeste 0 -- -- 89
2020-01-15 04:00:00 7.5 31 Sudoeste 52 Sudoeste 0 -- -- 87
2020-01-15 03:00:00 7.3 26 Sudoeste 46 Sudoeste 0 -- -- 87
2020-01-15 02:00:00 7.3 27 Sudoeste 46 Sudoeste 0 -- -- 89
2020-01-15 01:00:00 7.4 24 Sudoeste 42 Sudoeste 0 -- -- 89
2020-01-15 00:00:00 7.2 21 Sudoeste 34 Sudoeste 0 -- -- 90
2020-01-14 23:00:00 6.6 16 Sudoeste 29 Sudoeste 0 -- -- 92
2020-01-14 22:00:00 6.3 14 Sudoeste 29 Sudoeste 0.2 -- -- 92
2020-01-14 21:00:00 6.2 13 Sudoeste 27 Sur 0 -- -- 90
2020-01-14 20:00:00 6 12 Sudoeste 26 Sudoeste 0.2 -- -- 92
2020-01-14 19:00:00 6.5 15 Sudoeste 27 Sudoeste 0 -- -- 87
2020-01-14 18:00:00 6.6 12 Sudoeste 39 Sudoeste 0 -- -- 87
2020-01-14 17:00:00 8 19 Sudoeste 40 Sudoeste 0 -- -- 82
2020-01-14 16:00:00 7.9 20 Sudoeste 33 Sur 0 -- -- 82
2020-01-14 15:00:00 6.7 18 Sudoeste 33 Sur 0 -- -- 86
2020-01-14 14:00:00 7 18 Sudoeste 30 Sudoeste 0 -- -- 84
2020-01-14 13:00:00 7 21 Sudoeste 33 Sudoeste 0 -- -- 82
2020-01-14 12:00:00 6.4 18 Sudoeste 29 Sudoeste 0 -- -- 83
2020-01-14 11:00:00 5.6 13 Sudoeste 23 Sudoeste 0 -- -- 86
2020-01-14 10:00:00 4.1 0 Calma 11 Sur 0 -- -- 88
2020-01-14 09:00:00 3.5 5 Sur 11 Sur 0 -- -- 90
2020-01-14 08:00:00 3.5 6 Sur 14 Sur 0 -- -- 88
2020-01-14 07:00:00 3.6 9 Sur 17 Sur 0 -- -- 87
2020-01-14 06:00:00 3.5 5 Sur 18 Sudoeste 0 -- -- 88
2020-01-14 05:00:00 3.5 10 Sudoeste 18 Sudoeste 0 -- -- 88
2020-01-14 04:00:00 3.8 13 Sudoeste 26 Sudoeste 0 -- -- 87
2020-01-14 03:00:00 4 14 Sudoeste 26 Sudoeste 0 -- -- 86
2020-01-14 02:00:00 4.1 13 Sudoeste 27 Oeste 0 -- -- 85
2020-01-14 01:00:00 4.1 15 Sudoeste 23 Sudoeste 0 -- -- 86
2020-01-14 00:00:00 4 8 Sudoeste 15 Sudoeste 0 -- -- 87
2020-01-13 23:00:00 3.3 9 Sudoeste 15 Sudoeste 0 -- -- 87
2020-01-13 22:00:00 2.9 5 Oeste 14 Oeste 0 -- -- 87
2020-01-13 21:00:00 2.2 5 Oeste 10 Oeste 0 -- -- 87
2020-01-13 20:00:00 2.9 6 Noroeste 10 Noroeste 0 -- -- 86
2020-01-13 19:00:00 3.8 2 Oeste 11 Sudoeste 0 -- -- 76
2020-01-13 18:00:00 7.3 7 Sudoeste 21 Sudoeste 0 -- -- 66
2020-01-13 17:00:00 8.7 15 Oeste 25 Sudoeste 0 -- -- 62
2020-01-13 16:00:00 9 15 Oeste 29 Oeste 0 -- -- 60
2020-01-13 15:00:00 8.9 14 Oeste 26 Oeste 0 -- -- 62
2020-01-13 14:00:00 7.4 16 Oeste 27 Oeste 0 -- -- 74
2020-01-13 13:00:00 3.5 5 Sur 9 Sudoeste 0 -- -- 92
2020-01-13 12:00:00 0.1 3 Sudoeste 9 Sudeste 0 -- -- 100
2020-01-13 11:00:00 -3.1 3 Sudeste 4 Sudeste 0 -- -- 98
2020-01-13 10:00:00 -4.6 2 Este 8 Sudeste 0 -- -- 99
2020-01-13 09:00:00 -5.4 0 Calma 5 Sudeste 0 -- -- 100
2020-01-13 08:00:00 -5.3 3 Sudeste 6 Sudeste 0 -- -- 99
2020-01-13 07:00:00 -5.4 3 Sudeste 6 Sudeste 0 -- -- 99
2020-01-13 06:00:00 -5.9 4 Sudeste 8 Sudeste 0 -- -- 99
2020-01-13 05:00:00 -6.6 2 Sudeste 5 Sudeste 0 -- -- 97
2020-01-13 04:00:00 -6.2 2 Sudeste -- -- 0 -- -- 98
2020-01-13 03:00:00 -6 0 Calma 3 Sudeste 0 -- -- 97
2020-01-13 02:00:00 -5.7 0 Calma 3 Sudeste 0 -- -- 97
2020-01-13 01:00:00 -5.3 0 Calma 2 Nordeste 0 -- -- 96
2020-01-13 00:00:00 -4.4 0 Calma 8 Nordeste 0 -- -- 97
2020-01-12 23:00:00 -3.9 5 Nordeste 9 Nordeste 0 -- -- 97
2020-01-12 22:00:00 -3.8 3 Nordeste 5 Nordeste 0 -- -- 98
2020-01-12 21:00:00 -3.3 2 Nordeste 4 Nordeste 0 -- -- 98
2020-01-12 20:00:00 -2.7 3 Nordeste 9 Nordeste 0 -- -- 98
2020-01-12 19:00:00 -1.6 4 Nordeste 16 Nordeste 0 -- -- 99
2020-01-12 18:00:00 -1.1 12 Nordeste 21 Nordeste 0 -- -- 98
2020-01-12 17:00:00 2.4 12 Nordeste 15 Nordeste 0 -- -- 89
2020-01-12 16:00:00 6.7 6 Norte 12 Norte 0 -- -- 77
2020-01-12 15:00:00 6.3 5 Sudoeste 12 Sur 0 -- -- 79
2020-01-12 14:00:00 3 4 Nordeste 13 Nordeste 0 -- -- 91
2020-01-12 13:00:00 -0.6 11 Nordeste 19 Nordeste 0 -- -- 100
2020-01-12 12:00:00 0.8 7 Nordeste 12 Nordeste 0.2 -- -- 98
2020-01-12 11:00:00 -1.8 0 Calma 5 Nordeste 0 -- -- 100
2020-01-12 10:00:00 -4.1 3 Nordeste 7 Este 0 -- -- 99
2020-01-12 09:00:00 -5.5 0 Calma 3 Sudeste 0 -- -- 99
2020-01-12 08:00:00 -5.5 0 Calma 3 Este 0 -- -- 99
2020-01-12 07:00:00 -5 2 Sudeste 4 Sudeste 0 -- -- 99
2020-01-12 06:00:00 -4.9 2 Sudeste 6 Sudeste 0 -- -- 100
2020-01-12 05:00:00 -4.7 3 Sudeste 6 Sudeste 0 -- -- 100
2020-01-12 04:00:00 -4.6 3 Sudeste 6 Sudeste 0 -- -- 100
2020-01-12 03:00:00 -4.2 3 Sudeste 6 Sudeste 0 -- -- 100
2020-01-12 02:00:00 -4.4 4 Sudeste 8 Sudeste 0 -- -- 100
2020-01-12 01:00:00 -4 3 Sudeste 8 Sur 0 -- -- 99
2020-01-12 00:00:00 -3.8 3 Sur 7 Sudeste 0 -- -- 97
2020-01-11 23:00:00 -2.6 3 Sur 8 Sudeste 0 -- -- 97
2020-01-11 22:00:00 -1.2 4 Sudeste 7 Sur 0 -- -- 97
2020-01-11 21:00:00 -0.1 3 Sudeste 7 Sur 0 -- -- 96
2020-01-11 20:00:00 0.8 3 Este 9 Nordeste 0 -- -- 94
2020-01-11 19:00:00 2.2 6 Nordeste 10 Nordeste 0 -- -- 91
2020-01-11 18:00:00 5.2 6 Nordeste 9 Nordeste 0 -- -- 83
2020-01-11 17:00:00 8.1 4 Oeste 6 Noroeste 0 -- -- 76
2020-01-11 16:00:00 7 4 Nordeste 6 Sudeste 0 -- -- 80
2020-01-11 15:00:00 6.9 4 Sur 11 Sudeste 0 -- -- 81
2020-01-11 14:00:00 4.3 7 Nordeste 13 Este 0 -- -- 94
2020-01-11 13:00:00 1.9 4 Este 10 Este 0 -- -- 99
2020-01-11 12:00:00 0.7 8 Nordeste 14 Nordeste 0 -- -- 99
2020-01-11 11:00:00 1.2 8 Nordeste 13 Nordeste 0 -- -- 99
2020-01-11 10:00:00 -0.9 9 Nordeste 16 Nordeste 0 -- -- 100
2020-01-11 09:00:00 -1.8 12 Nordeste 15 Nordeste 0 -- -- 100
2020-01-11 08:00:00 -2 10 Nordeste 14 Nordeste 0 -- -- 99
2020-01-11 07:00:00 -1.6 10 Nordeste 17 Nordeste 0 -- -- 99
2020-01-11 06:00:00 -2.7 3 Nordeste 6 Sudoeste 0 -- -- 98
2020-01-11 05:00:00 -2.2 0 Calma 9 Nordeste 0 -- -- 94
2020-01-11 04:00:00 -0.8 7 Nordeste 11 Nordeste 0 -- -- 98
2020-01-11 03:00:00 -1.5 5 Este 8 Nordeste 0 -- -- 96
2020-01-11 02:00:00 0.5 5 Nordeste 13 Este 0 -- -- 91
2020-01-11 01:00:00 2.1 8 Este 14 Este 0 -- -- 89
2020-01-11 00:00:00 -0.2 7 Nordeste 12 Este 0 -- -- 95
2020-01-10 23:00:00 0.4 8 Nordeste 10 Nordeste 0 -- -- 93
2020-01-10 22:00:00 0.8 9 Este 13 Este 0 -- -- 92
2020-01-10 21:00:00 2.2 6 Este 10 Este 0 -- -- 86
2020-01-10 20:00:00 2.9 6 Este 13 Este 0 -- -- 83
2020-01-10 19:00:00 4.3 9 Este 15 Este 0 -- -- 78
2020-01-10 18:00:00 6 10 Este 25 Nordeste 0 -- -- 75
2020-01-10 17:00:00 7.3 14 Este 27 Este 0 -- -- 69
2020-01-10 16:00:00 7.5 18 Este 27 Este 0 -- -- 67
2020-01-10 15:00:00 7.5 19 Nordeste 30 Este 0 -- -- 69
2020-01-10 14:00:00 7 20 Nordeste 30 Nordeste 0 -- -- 70
2020-01-10 13:00:00 6.8 15 Nordeste 27 Nordeste 0 -- -- 72
2020-01-10 12:00:00 5.6 13 Nordeste 22 Nordeste 0 -- -- 79
2020-01-10 11:00:00 3.7 13 Nordeste 18 Nordeste 0 -- -- 86
2020-01-10 10:00:00 -0.9 0 Calma 7 Este 0 -- -- 98
2020-01-10 09:00:00 -1.7 4 Nordeste 6 Nordeste 0 -- -- 100
2020-01-10 08:00:00 -1.8 2 Este 6 Nordeste 0 -- -- 98
2020-01-10 07:00:00 -0.3 5 Norte 10 Norte 0 -- -- 100
2020-01-10 06:00:00 -2 0 Calma 7 Nordeste 0 -- -- 97
2020-01-10 05:00:00 0.3 0 Calma 6 Norte 0 -- -- 94
2020-01-10 04:00:00 0.9 3 Norte 7 Noroeste 0 -- -- 98
2020-01-10 03:00:00 -0.4 2 Nordeste 4 Nordeste 0 -- -- 97
2020-01-10 02:00:00 1.1 2 Norte 8 Norte 0 -- -- 91
2020-01-10 01:00:00 2.9 4 Noroeste 12 Noroeste 0 -- -- 92
2020-01-10 00:00:00 3.8 8 Noroeste 24 Noroeste 0 -- -- 88
2020-01-09 23:00:00 5.7 9 Noroeste 22 Oeste 0 -- -- 86
2020-01-09 22:00:00 6.2 6 Oeste 16 Oeste 0 -- -- 93
2020-01-09 21:00:00 5.9 4 Oeste 12 Noroeste 0 -- -- 94
2020-01-09 20:00:00 6.9 8 Oeste 24 Oeste 0 -- -- 89
2020-01-09 19:00:00 8.8 11 Noroeste 31 Noroeste 0 -- -- 89
2020-01-09 18:00:00 10.2 18 Oeste 36 Oeste 0 -- -- 92
2020-01-09 17:00:00 10.9 12 Oeste 23 Sudoeste 0 -- -- 91
2020-01-09 16:00:00 9.9 11 Sudoeste 27 Oeste 0 -- -- 95
2020-01-09 15:00:00 10.3 15 Sudoeste 27 Sudoeste 0 -- -- 91
2020-01-09 14:00:00 9.2 9 Oeste 23 Sudoeste 0 -- -- 97
2020-01-09 13:00:00 7.5 5 Sudoeste 9 Sur 0 -- -- 100
2020-01-09 12:00:00 4.5 0 Calma 3 Este 0 -- -- 100
2020-01-09 11:00:00 2.4 0 Calma 4 Sudeste 0 -- -- 100
2020-01-09 10:00:00 1 0 Calma 3 Sur 0 -- -- 100
2020-01-09 09:00:00 -0.1 0 Calma 5 Sudeste 0 -- -- 100
2020-01-09 08:00:00 -0.4 2 Este 3 Este 0 -- -- 100
2020-01-09 07:00:00 -0.9 3 Sudeste 6 Sudeste 0 -- -- 100
2020-01-09 06:00:00 -1.2 0 Calma 3 Sudeste 0 -- -- 99
2020-01-09 05:00:00 -0.4 0 Calma 4 Sudeste 0 -- -- 99
2020-01-09 04:00:00 0 2 Este 4 Este 0 -- -- 100
2020-01-09 03:00:00 -0.8 2 Sudeste 4 Sudeste 0 -- -- 100
2020-01-09 02:00:00 -0.7 0 Calma 4 Sudeste 0 -- -- 99
2020-01-09 01:00:00 -0.4 0 Calma 4 Este 0 -- -- 99
2020-01-09 00:00:00 0.3 2 Nordeste 4 Nordeste 0 -- -- 99
2020-01-08 23:00:00 0 0 Calma 3 Nordeste 0 -- -- 98
2020-01-08 22:00:00 0.3 3 Nordeste 4 Nordeste 0 -- -- 96
2020-01-08 21:00:00 1.3 3 Nordeste 4 Nordeste 0 -- -- 92
2020-01-08 20:00:00 2.8 2 Este 6 Nordeste 0 -- -- 92
2020-01-08 19:00:00 4.4 0 Calma 5 Norte 0 -- -- 88
2020-01-08 18:00:00 6.7 3 Norte 9 Nordeste 0 -- -- 82
2020-01-08 17:00:00 8.3 7 Nordeste 11 Norte 0 -- -- 77
2020-01-08 16:00:00 8.8 5 Nordeste 11 Nordeste 0 -- -- 74
2020-01-08 15:00:00 8.3 5 Nordeste 12 Nordeste 0 -- -- 70
2020-01-08 14:00:00 7.1 5 Norte 9 Norte 0 -- -- 79
2020-01-08 13:00:00 5.2 0 Calma 8 Este 0 -- -- 88
2020-01-08 12:00:00 1.5 8 Nordeste 10 Nordeste 0 -- -- 96
2020-01-08 11:00:00 0.1 3 Nordeste 8 Nordeste 0.2 -- -- 99
2020-01-08 10:00:00 -2.6 0 Calma 4 Nordeste 0 -- -- 100
2020-01-08 09:00:00 -4 0 Calma 3 Nordeste 0 -- -- 99
2020-01-08 08:00:00 -3.8 2 Nordeste 6 Nordeste 0 -- -- 100
2020-01-08 07:00:00 -3.5 5 Nordeste 11 Nordeste 0 -- -- 100
2020-01-08 06:00:00 -3.8 3 Nordeste 6 Nordeste 0 -- -- 100
2020-01-08 05:00:00 -4.3 0 Calma 3 Nordeste 0 -- -- 100
2020-01-08 04:00:00 -4.2 2 Nordeste 3 Nordeste 0 -- -- 100
2020-01-08 03:00:00 -3.8 0 Calma 3 Nordeste 0 -- -- 100
2020-01-08 02:00:00 -3.4 2 Nordeste 4 Nordeste 0 -- -- 100
2020-01-08 01:00:00 -3.1 0 Calma 4 Nordeste 0 -- -- 100
2020-01-08 00:00:00 -3 0 Calma 5 Nordeste 0 -- -- 100
2020-01-07 23:00:00 -3.3 2 Nordeste 3 Nordeste 0 -- -- 100
2020-01-07 22:00:00 -2.9 0 Calma 2 Nordeste 0 -- -- 100
2020-01-07 21:00:00 -2.2 0 Calma 6 Nordeste 0 -- -- 100
2020-01-07 20:00:00 -1.4 0 Calma 5 Nordeste 0 -- -- 100
2020-01-07 19:00:00 -0.1 4 Nordeste 9 Nordeste 0 -- -- 100
2020-01-07 18:00:00 1.3 7 Nordeste 10 Nordeste 0 -- -- 100
2020-01-07 17:00:00 2.5 7 Nordeste 11 Nordeste 0 -- -- 98
2020-01-07 16:00:00 3.4 9 Nordeste 13 Norte 0 -- -- 95
2020-01-07 15:00:00 4.8 5 Oeste 9 Noroeste 0 -- -- 100
2020-01-07 14:00:00 2.4 0 Calma 9 Este 0 -- -- 100
2020-01-07 13:00:00 -0.3 3 Nordeste 7 Este 0 -- -- 100
2020-01-07 12:00:00 -1.3 0 Calma -- -- 0 -- -- 100
2020-01-07 11:00:00 -2.5 0 Calma -- -- 0 -- -- 100
2020-01-07 10:00:00 -2.9 0 Calma 0 Calma 0 -- -- 100
2020-01-07 09:00:00 -2.9 0 Calma -- -- 0 -- -- 100
2020-01-07 08:00:00 -2.8 0 Calma -- -- 0 -- -- 100
2020-01-07 07:00:00 -2.6 0 Calma -- -- 0 -- -- 100
2020-01-07 06:00:00 -2.3 0 Calma -- -- 0 -- -- 100
2020-01-07 05:00:00 -2 0 Calma -- -- 0 -- -- 100
2020-01-07 04:00:00 -1.6 0 Calma -- -- 0 -- -- 100
2020-01-07 03:00:00 -1.4 0 Calma 23 Nordeste 0 -- -- 100
2020-01-07 02:00:00 -0.9 12 Nordeste 18 Nordeste 0 -- -- 100
2020-01-07 01:00:00 -1.4 3 Este 6 Este 0 -- -- 100
2020-01-07 00:00:00 -1.2 0 Calma 4 Sudeste 0 -- -- 100
2020-01-06 23:00:00 -1.6 0 Calma 7 Norte 0 -- -- 100
2020-01-06 22:00:00 -1.6 4 Sudeste 17 Nordeste 0 -- -- 100
2020-01-06 21:00:00 -1.1 9 Nordeste 13 Nordeste 0 -- -- 100
2020-01-06 20:00:00 -0.3 6 Nordeste 9 Nordeste 0 -- -- 97
2020-01-06 19:00:00 1.3 3 Norte 7 Noroeste 0 -- -- 95
2020-01-06 18:00:00 3.6 3 Noroeste 7 Noroeste 0 -- -- 91
2020-01-06 17:00:00 4.8 2 Noroeste 8 Noroeste 0 -- -- 90
2020-01-06 16:00:00 4.2 4 Norte 10 Noroeste 0 -- -- 93
2020-01-06 15:00:00 3.6 5 Norte 11 Norte 0 -- -- 100
2020-01-06 14:00:00 2 5 Noroeste 12 Noroeste 0 -- -- 100
2020-01-06 13:00:00 0.2 3 Sudeste 8 Sudeste 0 -- -- 100
2020-01-06 12:00:00 -1.5 0 Calma -- -- 0.2 -- -- 100
2020-01-06 11:00:00 -2.1 0 Calma -- -- 0 -- -- 100
2020-01-06 10:00:00 -2.8 0 Calma -- -- 0 -- -- 100